Аэропорт: Остафьево. Москва

ICAO: UUMO

METAR:
2018/05/20 19:30
UUMO 201930Z 00000MPS 1100 R26/2000 BR NSC 08/08 Q1023 R26/090060 NOSIG RMK QFE752/1003
METAR:
Информация по данной станции не доступна